Time;durP1;ratioP1;P1;durP2;ratioP2;P2;SDS_P1;SDS_P2;PMS_P1;PMS_P2;Temp;Humidity;BMP_temperature;BMP_pressure;BME280_temperature;BME280_humidity;BME280_pressure;Samples;Min_cycle;Max_cycle;Signal;HPM_P1;HPM_P2
2021/12/29 00:02:11;;;;;;;10.73;3.10;;;4.00;99.90;;;;;;4993419;28;20117;-89
2021/12/29 00:04:36;;;;;;;12.40;2.70;;;4.00;99.90;;;;;;4974116;28;20066;-89
2021/12/29 00:07:02;;;;;;;13.00;2.90;;;3.90;99.90;;;;;;4974192;28;20538;-89
2021/12/29 00:09:41;;;;;;;11.88;2.95;;;3.90;99.90;;;;;;4973974;28;20023;-89
2021/12/29 00:12:08;;;;;;;6.63;2.55;;;3.90;99.90;;;;;;4974019;28;20038;-89
2021/12/29 00:14:35;;;;;;;11.73;2.60;;;3.90;99.90;;;;;;4974060;28;20121;-89
2021/12/29 00:17:08;;;;;;;11.18;2.78;;;3.90;99.90;;;;;;4974038;28;20058;-89
2021/12/29 00:19:34;;;;;;;15.02;2.63;;;3.90;99.90;;;;;;4972680;28;20066;-89
2021/12/29 00:22:17;;;;;;;12.18;3.10;;;4.10;99.90;;;;;;4973938;28;20431;-89
2021/12/29 00:24:42;;;;;;;16.00;3.08;;;4.70;99.90;;;;;;4983541;28;20041;-89
2021/12/29 00:27:10;;;;;;;12.05;2.28;;;5.00;99.90;;;;;;4975757;28;20471;-89
2021/12/29 00:29:50;;;;;;;6.40;2.25;;;5.10;99.90;;;;;;4993423;28;20081;-89
2021/12/29 00:32:16;;;;;;;6.60;2.30;;;5.20;99.90;;;;;;4975637;28;20026;-89
2021/12/29 00:34:50;;;;;;;7.65;2.50;;;5.30;99.90;;;;;;4993236;28;20395;-88
2021/12/29 00:37:19;;;;;;;9.35;2.42;;;5.40;99.90;;;;;;4993109;28;20053;-89
2021/12/29 00:39:45;;;;;;;13.52;3.00;;;5.50;99.90;;;;;;4975890;28;20037;-89
2021/12/29 00:42:10;;;;;;;13.23;1.90;;;5.60;99.90;;;;;;4993172;28;20383;-89
2021/12/29 00:44:59;;;;;;;10.90;2.35;;;5.70;99.90;;;;;;4993451;28;20105;-88
2021/12/29 00:47:29;;;;;;;10.40;2.50;;;5.90;99.90;;;;;;4992989;28;20057;-88
2021/12/29 00:49:55;;;;;;;13.30;2.30;;;6.00;99.90;;;;;;4993047;28;20058;-89
2021/12/29 00:52:38;;;;;;;10.07;2.67;;;6.00;99.90;;;;;;4975775;28;20121;-89
2021/12/29 00:55:04;;;;;;;18.67;2.85;;;6.00;99.90;;;;;;4975959;28;20026;-89
2021/12/29 00:57:30;;;;;;;9.95;1.95;;;6.00;99.90;;;;;;4978632;28;20062;-89
2021/12/29 01:00:11;;;;;;;6.47;1.90;;;6.10;99.90;;;;;;4996711;28;20418;-89
2021/12/29 01:02:37;;;;;;;9.25;2.20;;;6.10;99.90;;;;;;4978822;28;20026;-88
2021/12/29 01:05:04;;;;;;;8.27;1.80;;;6.20;99.90;;;;;;4996525;28;20030;-88
2021/12/29 01:07:29;;;;;;;8.77;2.58;;;6.20;99.90;;;;;;4978809;28;20026;-88
2021/12/29 01:09:55;;;;;;;10.73;2.05;;;6.30;99.90;;;;;;4996375;28;20134;-89
2021/12/29 01:12:20;;;;;;;7.95;2.22;;;6.30;99.90;;;;;;4996513;28;20033;-88
2021/12/29 01:14:53;;;;;;;13.10;2.35;;;6.30;99.90;;;;;;4996495;28;20023;-87
2021/12/29 01:17:20;;;;;;;10.27;2.00;;;6.30;99.90;;;;;;4996079;28;20494;-88
2021/12/29 01:19:46;;;;;;;6.53;1.48;;;6.40;99.90;;;;;;4978620;28;20105;-88
2021/12/29 01:22:12;;;;;;;4.25;1.45;;;6.40;99.90;;;;;;4996028;28;20082;-89
2021/12/29 01:24:37;;;;;;;4.82;1.60;;;6.50;99.90;;;;;;4978850;28;20053;-89
2021/12/29 01:27:05;;;;;;;10.75;1.95;;;6.50;99.90;;;;;;4996088;28;20509;-89
2021/12/29 01:29:31;;;;;;;8.90;1.70;;;6.50;99.90;;;;;;4978381;28;20482;-88
2021/12/29 01:31:58;;;;;;;7.10;2.00;;;6.60;99.90;;;;;;4995664;28;20023;-88
2021/12/29 01:34:28;;;;;;;5.60;1.90;;;6.60;99.90;;;;;;4977911;28;20031;-90
2021/12/29 01:36:54;;;;;;;4.75;1.67;;;6.60;99.90;;;;;;4995973;28;20071;-88
2021/12/29 01:39:21;;;;;;;3.53;1.23;;;6.60;99.90;;;;;;4994934;28;20566;-87
2021/12/29 01:41:58;;;;;;;5.07;1.48;;;6.60;99.90;;;;;;4995774;28;20026;-88
2021/12/29 01:44:26;;;;;;;6.35;1.60;;;6.70;99.90;;;;;;4978245;28;20060;-87
2021/12/29 01:46:53;;;;;;;9.85;1.50;;;6.70;99.90;;;;;;4978257;28;20033;-88
2021/12/29 01:49:33;;;;;;;8.55;1.33;;;6.70;99.90;;;;;;4977765;28;20778;-89
2021/12/29 01:52:03;;;;;;;3.70;1.48;;;6.60;99.90;;;;;;4995679;28;20026;-88
2021/12/29 01:54:34;;;;;;;4.20;1.30;;;6.70;99.90;;;;;;4978186;28;20045;-88
2021/12/29 01:57:10;;;;;;;10.57;1.40;;;6.60;99.90;;;;;;4978109;28;20037;-88
2021/12/29 01:59:37;;;;;;;2.47;1.33;;;6.50;99.90;;;;;;4995460;28;20045;-88
2021/12/29 02:02:03;;;;;;;7.10;1.80;;;6.50;99.90;;;;;;4977738;28;20034;-88
2021/12/29 02:04:45;;;;;;;7.55;1.65;;;6.50;99.90;;;;;;4995425;28;20030;-89
2021/12/29 02:07:12;;;;;;;5.38;1.70;;;6.30;99.90;;;;;;4994806;28;20026;-89
2021/12/29 02:09:38;;;;;;;2.83;1.60;;;6.30;99.90;;;;;;4995028;28;20029;-89
2021/12/29 02:12:04;;;;;;;11.05;2.00;;;6.20;99.90;;;;;;4994948;28;20471;-88
2021/12/29 02:14:30;;;;;;;11.13;2.03;;;6.20;99.90;;;;;;4977927;28;20105;-88
2021/12/29 02:17:06;;;;;;;6.30;1.70;;;6.30;99.90;;;;;;4995088;28;20066;-88
2021/12/29 02:19:32;;;;;;;3.80;1.70;;;6.30;99.90;;;;;;4995121;28;20105;-88
2021/12/29 02:22:07;;;;;;;4.68;1.98;;;6.30;99.90;;;;;;4995031;28;20169;-87
2021/12/29 02:24:44;;;;;;;8.20;2.05;;;6.30;99.90;;;;;;4994968;28;20036;-89
2021/12/29 02:27:12;;;;;;;7.53;1.70;;;6.30;99.90;;;;;;4994727;28;20027;-88
2021/12/29 02:29:40;;;;;;;5.63;1.80;;;6.20;99.90;;;;;;4994797;28;20102;-88
2021/12/29 02:32:06;;;;;;;8.55;2.00;;;6.20;99.90;;;;;;4994532;28;20041;-90
2021/12/29 02:34:35;;;;;;;8.60;1.85;;;6.20;99.90;;;;;;4994969;28;20034;-89
2021/12/29 02:37:03;;;;;;;8.38;3.08;;;6.20;99.90;;;;;;4977467;28;20056;-89
2021/12/29 02:39:31;;;;;;;6.43;1.85;;;6.20;99.90;;;;;;4994661;28;20125;-88
2021/12/29 02:42:04;;;;;;;9.30;1.98;;;6.30;99.90;;;;;;4994769;28;20381;-89
2021/12/29 02:44:38;;;;;;;7.63;2.88;;;6.30;99.90;;;;;;4994856;28;20053;-88
2021/12/29 02:47:10;;;;;;;7.68;1.80;;;6.30;99.90;;;;;;4994817;28;20493;-89
2021/12/29 02:49:36;;;;;;;6.25;2.00;;;6.40;99.90;;;;;;4977213;28;20026;-89
2021/12/29 02:52:05;;;;;;;6.45;1.58;;;6.40;99.90;;;;;;4994375;28;20251;-89
2021/12/29 02:54:31;;;;;;;6.93;1.80;;;6.30;99.90;;;;;;4994504;28;20471;-89
2021/12/29 02:56:56;;;;;;;8.23;1.90;;;6.40;99.90;;;;;;4976914;28;20030;-89
2021/12/29 02:59:24;;;;;;;6.78;2.13;;;6.30;99.90;;;;;;4977002;28;20042;-89
2021/12/29 03:01:51;;;;;;;7.00;2.10;;;6.30;99.90;;;;;;4976851;28;20381;-90
2021/12/29 03:04:27;;;;;;;5.28;1.77;;;6.40;99.90;;;;;;4976745;28;20030;-90
2021/12/29 03:06:53;;;;;;;5.03;1.60;;;6.40;99.90;;;;;;4976770;28;20070;-89
2021/12/29 03:09:19;;;;;;;6.25;1.73;;;6.40;99.90;;;;;;4994221;28;20050;-88
2021/12/29 03:11:52;;;;;;;10.75;2.22;;;6.40;99.90;;;;;;4994164;28;20101;-88
2021/12/29 03:14:18;;;;;;;5.93;1.92;;;6.40;99.90;;;;;;4977205;28;20023;-89
2021/12/29 03:16:44;;;;;;;8.98;2.00;;;6.30;99.90;;;;;;4976514;28;20057;-88
2021/12/29 03:19:20;;;;;;;5.22;1.80;;;6.40;99.90;;;;;;4993692;28;20438;-89
2021/12/29 03:21:45;;;;;;;12.00;1.92;;;6.50;99.90;;;;;;4976582;28;20026;-87
2021/12/29 03:24:12;;;;;;;4.63;1.63;;;6.40;99.90;;;;;;4993990;28;20431;-89
2021/12/29 03:26:45;;;;;;;8.40;1.88;;;6.40;99.90;;;;;;4976537;28;20027;-89
2021/12/29 03:29:10;;;;;;;2.20;1.33;;;6.40;99.90;;;;;;4993987;28;20019;-89
2021/12/29 03:31:39;;;;;;;7.22;2.15;;;6.30;99.90;;;;;;4993799;28;20029;-89
2021/12/29 03:34:23;;;;;;;3.60;1.42;;;6.20;99.90;;;;;;4993692;28;20030;-90
2021/12/29 03:36:49;;;;;;;4.35;1.98;;;6.00;99.90;;;;;;4976894;28;20032;-90
2021/12/29 03:39:14;;;;;;;4.72;1.50;;;5.80;99.90;;;;;;4992982;28;20046;-90
2021/12/29 03:42:22;;;;;;;2.95;1.67;;;5.80;99.90;;;;;;4976378;28;20030;-90
2021/12/29 03:44:47;;;;;;;5.47;1.75;;;5.60;99.90;;;;;;4976439;28;20022;-89
2021/12/29 03:47:13;;;;;;;8.55;2.40;;;5.50;99.90;;;;;;4993702;28;20037;-90
2021/12/29 03:49:51;;;;;;;3.92;2.17;;;5.40;99.90;;;;;;4993712;28;20359;-89
2021/12/29 03:52:17;;;;;;;6.95;2.35;;;5.20;99.90;;;;;;4993612;28;20057;-90
2021/12/29 03:54:43;;;;;;;5.47;1.77;;;5.20;99.90;;;;;;4993782;28;20406;-90
2021/12/29 03:57:08;;;;;;;3.00;2.33;;;5.10;99.90;;;;;;4993674;28;20026;-89
2021/12/29 03:59:34;;;;;;;6.60;2.28;;;5.30;99.90;;;;;;4993863;28;20019;-89
2021/12/29 04:02:09;;;;;;;4.38;1.70;;;5.50;99.90;;;;;;4993546;28;20126;-89
2021/12/29 04:04:34;;;;;;;4.80;3.03;;;5.70;99.90;;;;;;4976097;28;20030;-89
2021/12/29 04:07:00;;;;;;;5.63;1.65;;;5.90;99.90;;;;;;4976026;28;20509;-89
2021/12/29 04:09:27;;;;;;;4.05;1.73;;;5.90;99.90;;;;;;4993484;28;20054;-89
2021/12/29 04:11:52;;;;;;;3.28;1.30;;;5.90;99.90;;;;;;4993466;28;20030;-90
2021/12/29 04:14:20;;;;;;;10.20;1.60;;;5.90;99.90;;;;;;4993313;28;20081;-89
2021/12/29 04:17:06;;;;;;;5.57;1.95;;;5.90;99.90;;;;;;4993359;28;20506;-89
2021/12/29 04:22:16;;;;;;;7.15;1.95;;;6.00;99.90;;;;;;4993448;28;20093;-89
2021/12/29 04:24:57;;;;;;;8.43;2.20;;;6.20;99.90;;;;;;4993079;28;20038;-89
2021/12/29 04:27:25;;;;;;;4.15;1.80;;;6.30;99.90;;;;;;4976023;28;20459;-88
2021/12/29 04:29:51;;;;;;;3.67;2.05;;;6.40;99.90;;;;;;4993256;28;20364;-90
2021/12/29 04:32:17;;;;;;;4.85;2.30;;;6.40;99.90;;;;;;4978704;28;20027;-89
2021/12/29 04:34:43;;;;;;;5.38;2.53;;;6.50;99.90;;;;;;4996932;28;20085;-89
2021/12/29 04:37:09;;;;;;;6.55;1.92;;;6.50;99.90;;;;;;4997120;28;20064;-89
2021/12/29 04:39:34;;;;;;;4.15;2.40;;;6.60;99.90;;;;;;4979064;28;20092;-89
2021/12/29 04:42:03;;;;;;;8.98;2.53;;;6.70;99.90;;;;;;4996888;28;20018;-89
2021/12/29 04:44:29;;;;;;;4.32;1.83;;;6.70;99.90;;;;;;4997099;28;20022;-88
2021/12/29 04:46:57;;;;;;;3.25;1.77;;;6.70;99.90;;;;;;4996750;28;20057;-89
2021/12/29 04:49:41;;;;;;;3.25;1.83;;;6.70;99.90;;;;;;4979274;28;20082;-89
2021/12/29 04:52:10;;;;;;;2.88;2.03;;;6.70;99.90;;;;;;4959829;28;20073;-88
2021/12/29 04:54:38;;;;;;;5.82;1.90;;;6.70;99.90;;;;;;4976902;28;20018;-89
2021/12/29 04:57:21;;;;;;;2.22;1.80;;;6.70;99.90;;;;;;4979057;28;20121;-88
2021/12/29 04:59:46;;;;;;;6.93;2.15;;;6.60;99.90;;;;;;4995806;28;20032;-89
2021/12/29 05:02:12;;;;;;;2.60;2.03;;;6.50;99.90;;;;;;5015789;28;20025;-88
2021/12/29 05:04:46;;;;;;;3.28;2.15;;;6.50;99.90;;;;;;5002988;28;20026;-89
2021/12/29 05:10:20;;;;;;;3.37;2.00;;;6.50;99.90;;;;;;4996414;28;20033;-89
2021/12/29 05:12:45;;;;;;;5.50;2.22;;;6.40;99.90;;;;;;4978536;28;20546;-89
2021/12/29 05:15:12;;;;;;;4.35;1.90;;;6.40;99.90;;;;;;4996264;28;20110;-89
2021/12/29 05:17:37;;;;;;;2.40;2.20;;;6.40;99.90;;;;;;4995906;28;20018;-88
2021/12/29 05:20:03;;;;;;;4.85;2.60;;;6.40;99.90;;;;;;4978557;28;20034;-89
2021/12/29 05:22:39;;;;;;;2.65;2.22;;;6.30;99.90;;;;;;4978468;28;20505;-89
2021/12/29 05:25:05;;;;;;;4.05;1.83;;;6.30;99.90;;;;;;4976496;28;20387;-90
2021/12/29 05:27:50;;;;;;;1.85;1.35;;;6.30;99.90;;;;;;4959316;28;20019;-90
2021/12/29 05:30:16;;;;;;;1.67;1.57;;;6.30;99.90;;;;;;4976582;28;20101;-90
2021/12/29 05:32:45;;;;;;;2.58;1.52;;;6.30;99.90;;;;;;4974989;28;20023;-90
2021/12/29 05:35:11;;;;;;;1.73;1.50;;;6.30;99.90;;;;;;4995913;28;20109;-89
2021/12/29 05:37:40;;;;;;;1.17;1.08;;;6.30;99.90;;;;;;4978417;28;20026;-90
2021/12/29 05:43:18;;;;;;;1.48;1.30;;;6.40;99.90;;;;;;4995833;28;20026;-89
2021/12/29 05:45:54;;;;;;;1.98;1.08;;;6.40;99.90;;;;;;4970173;28;20059;-90
2021/12/29 05:48:20;;;;;;;;;;;6.50;99.90;;;;;;4976228;28;20128;-90
2021/12/29 05:50:55;;;;;;;1.58;1.05;;;6.50;99.90;;;;;;4976169;28;19906;-89
2021/12/29 05:53:21;;;;;;;1.50;1.40;;;6.50;99.90;;;;;;4958747;28;20038;-89
2021/12/29 05:55:58;;;;;;;2.05;1.30;;;6.40;99.90;;;;;;4975974;28;20026;-90
2021/12/29 05:58:24;;;;;;;1.00;1.00;;;6.40;99.90;;;;;;4975905;28;20082;-90
2021/12/29 06:00:51;;;;;;;1.00;1.00;;;6.40;99.90;;;;;;4958686;28;20023;-89
2021/12/29 06:03:19;;;;;;;0.80;0.80;;;6.40;99.90;;;;;;4975781;28;20058;-89
2021/12/29 06:05:46;;;;;;;0.60;0.60;;;6.50;99.90;;;;;;4958456;28;20751;-89
2021/12/29 06:08:12;;;;;;;1.40;0.80;;;6.50;99.90;;;;;;4958655;28;20599;-90
2021/12/29 06:10:39;;;;;;;2.25;1.00;;;6.50;99.90;;;;;;4991836;28;20097;-90
2021/12/29 06:13:04;;;;;;;1.70;1.23;;;6.50;99.90;;;;;;4977738;28;20022;-90
2021/12/29 06:15:30;;;;;;;1.50;1.40;;;6.40;99.90;;;;;;4993956;28;20117;-90
2021/12/29 06:18:02;;;;;;;2.80;1.70;;;6.40;99.90;;;;;;4969320;28;20031;-89
2021/12/29 06:20:30;;;;;;;2.17;1.98;;;6.40;99.90;;;;;;4958385;28;20034;-89
2021/12/29 06:22:57;;;;;;;2.00;1.50;;;6.40;99.90;;;;;;4975494;28;20034;-89
2021/12/29 06:25:23;;;;;;;3.38;2.30;;;6.30;99.90;;;;;;4979347;28;20158;-88
2021/12/29 06:27:55;;;;;;;4.28;2.92;;;6.30;99.90;;;;;;4994118;28;20025;-88
2021/12/29 06:30:21;;;;;;;15.73;9.27;;;6.40;99.90;;;;;;4994439;28;20490;-88
2021/12/29 06:32:49;;;;;;;16.35;10.57;;;6.50;99.90;;;;;;4976846;28;20019;-88
2021/12/29 06:35:15;;;;;;;7.93;5.75;;;6.60;99.90;;;;;;4994285;28;20343;-88
2021/12/29 06:37:42;;;;;;;1.30;1.17;;;6.60;99.90;;;;;;4994453;28;20082;-88
2021/12/29 06:40:09;;;;;;;0.80;0.80;;;6.60;99.90;;;;;;4975293;28;20097;-88
2021/12/29 06:42:43;;;;;;;1.70;0.75;;;6.70;99.90;;;;;;4993906;28;20022;-88
2021/12/29 06:45:09;;;;;;;0.85;0.50;;;6.80;99.90;;;;;;4994309;28;20434;-88
2021/12/29 06:47:36;;;;;;;0.68;0.68;;;6.80;99.90;;;;;;4976529;28;20026;-88
2021/12/29 06:50:04;;;;;;;1.48;0.70;;;6.80;99.90;;;;;;4976541;28;20030;-88
2021/12/29 06:52:42;;;;;;;0.63;0.60;;;6.80;99.90;;;;;;4994054;28;20030;-89
2021/12/29 06:55:08;;;;;;;0.85;0.70;;;6.80;99.90;;;;;;4976101;28;20533;-89
2021/12/29 06:57:37;;;;;;;0.68;0.68;;;6.80;99.90;;;;;;4976666;28;20390;-89
2021/12/29 07:00:05;;;;;;;0.80;0.80;;;6.70;99.90;;;;;;4976755;28;20398;-89
2021/12/29 07:02:45;;;;;;;0.73;0.73;;;6.70;99.90;;;;;;4976265;28;20394;-89
2021/12/29 07:05:11;;;;;;;1.08;1.00;;;6.60;99.90;;;;;;4993709;28;20026;-88
2021/12/29 07:07:37;;;;;;;1.00;0.80;;;6.60;99.90;;;;;;4993677;28;20090;-88
2021/12/29 07:10:04;;;;;;;1.33;1.10;;;6.60;99.90;;;;;;4976522;28;20076;-88
2021/12/29 07:12:29;;;;;;;0.90;0.90;;;6.50;99.90;;;;;;4976265;28;20027;-89
2021/12/29 07:14:55;;;;;;;0.90;0.90;;;6.50;99.90;;;;;;4993696;28;20446;-88
2021/12/29 07:17:24;;;;;;;1.17;0.95;;;6.50;99.90;;;;;;4993341;28;20467;-88
2021/12/29 07:19:49;;;;;;;0.88;0.88;;;6.40;99.90;;;;;;4976360;28;20089;-88
2021/12/29 07:22:17;;;;;;;0.82;0.82;;;6.40;99.90;;;;;;4993560;28;20034;-88
2021/12/29 07:24:43;;;;;;;2.30;0.93;;;6.40;99.90;;;;;;4993692;28;20035;-88
2021/12/29 07:27:08;;;;;;;3.90;1.27;;;6.30;99.90;;;;;;4993593;28;20396;-88
2021/12/29 07:29:42;;;;;;;3.33;1.20;;;6.40;99.90;;;;;;4993786;28;20142;-88
2021/12/29 07:32:08;;;;;;;3.05;1.60;;;6.30;99.90;;;;;;4993342;28;20018;-88
2021/12/29 07:34:36;;;;;;;5.40;1.17;;;6.30;99.90;;;;;;4976170;28;20097;-88
2021/12/29 07:37:02;;;;;;;2.33;0.98;;;6.30;99.90;;;;;;4976091;28;20545;-89
2021/12/29 07:39:27;;;;;;;2.05;1.40;;;6.30;99.90;;;;;;4993292;28;20101;-88
2021/12/29 07:41:54;;;;;;;1.48;1.30;;;6.40;99.90;;;;;;4993105;28;20026;-87
2021/12/29 07:44:22;;;;;;;1.58;1.23;;;6.40;99.90;;;;;;4993174;28;20022;-88
2021/12/29 07:46:52;;;;;;;5.68;1.50;;;6.30;99.90;;;;;;4975625;28;20401;-88
2021/12/29 07:49:19;;;;;;;1.10;1.02;;;6.40;99.90;;;;;;4993295;28;20022;-86
2021/12/29 07:51:45;;;;;;;2.55;1.30;;;6.40;99.90;;;;;;4975982;28;20030;-86
2021/12/29 07:54:14;;;;;;;0.88;0.80;;;6.40;99.90;;;;;;4993339;28;20026;-87
2021/12/29 07:56:41;;;;;;;1.38;0.98;;;6.50;99.90;;;;;;4993164;28;20033;-87
2021/12/29 07:59:10;;;;;;;0.80;0.80;;;6.60;99.90;;;;;;4993222;28;20089;-86
2021/12/29 08:01:36;;;;;;;4.03;0.80;;;6.70;99.90;;;;;;4992842;28;20042;-86
2021/12/29 08:04:02;;;;;;;1.30;0.82;;;6.70;99.90;;;;;;4975714;28;20387;-87
2021/12/29 08:06:28;;;;;;;0.75;0.75;;;6.70;99.90;;;;;;4994974;28;20513;-87
2021/12/29 08:08:54;;;;;;;1.40;1.30;;;6.70;99.90;;;;;;4979788;28;20537;-87
2021/12/29 08:11:20;;;;;;;1.83;1.45;;;6.70;99.90;;;;;;4996667;28;20022;-87
2021/12/29 08:13:50;;;;;;;1.20;1.20;;;6.70;99.90;;;;;;4997284;28;20426;-87
2021/12/29 08:16:16;;;;;;;2.65;1.30;;;6.60;99.90;;;;;;4996695;28;20037;-87
2021/12/29 08:18:56;;;;;;;1.15;1.10;;;6.60;99.90;;;;;;5008438;28;20034;-86
2021/12/29 08:21:22;;;;;;;1.40;1.30;;;6.60;99.90;;;;;;4979474;28;20486;-87
2021/12/29 08:23:57;;;;;;;3.35;1.45;;;6.50;99.90;;;;;;4996865;28;20065;-87
2021/12/29 08:26:22;;;;;;;1.87;1.50;;;6.50;99.90;;;;;;4996492;28;20046;-87
2021/12/29 08:28:58;;;;;;;1.58;1.42;;;6.50;99.90;;;;;;4996968;28;20018;-87
2021/12/29 08:31:25;;;;;;;2.00;1.77;;;6.50;99.90;;;;;;4996458;28;20019;-86
2021/12/29 08:33:51;;;;;;;1.27;1.15;;;6.50;99.90;;;;;;4979320;28;20117;-87
2021/12/29 08:36:16;;;;;;;2.42;2.15;;;6.50;99.90;;;;;;4996559;28;20105;-87
2021/12/29 08:38:51;;;;;;;2.35;1.58;;;6.50;99.90;;;;;;4996691;28;20030;-86
2021/12/29 08:41:34;;;;;;;1.73;1.63;;;6.50;99.90;;;;;;4978853;28;20088;-86
2021/12/29 08:43:59;;;;;;;1.35;1.25;;;6.40;99.90;;;;;;4979009;28;20513;-86
2021/12/29 08:46:50;;;;;;;2.53;1.25;;;6.40;99.90;;;;;;4978593;28;20026;-87
2021/12/29 08:49:16;;;;;;;1.63;1.35;;;6.40;99.90;;;;;;4978874;28;20409;-87
2021/12/29 08:51:54;;;;;;;1.85;1.60;;;6.40;99.90;;;;;;4996357;28;20098;-87
2021/12/29 08:54:19;;;;;;;2.50;1.80;;;6.40;99.90;;;;;;4996033;28;20023;-87
2021/12/29 08:56:54;;;;;;;3.28;2.00;;;6.40;99.90;;;;;;4996244;28;20030;-87
2021/12/29 08:59:20;;;;;;;7.97;3.03;;;6.40;99.90;;;;;;4996127;28;20374;-87
2021/12/29 09:02:03;;;;;;;11.38;4.20;;;6.50;99.90;;;;;;4995759;28;20033;-86
2021/12/29 09:04:28;;;;;;;8.07;3.05;;;6.40;99.90;;;;;;4996161;28;20030;-87
2021/12/29 09:06:54;;;;;;;5.28;2.33;;;6.40;99.90;;;;;;4978224;28;20077;-87
2021/12/29 09:09:20;;;;;;;8.02;3.08;;;6.50;99.90;;;;;;4995608;28;20471;-87
2021/12/29 09:11:48;;;;;;;10.52;3.92;;;6.40;99.90;;;;;;4978277;28;20018;-87
2021/12/29 09:14:14;;;;;;;8.93;3.22;;;6.50;99.90;;;;;;4995995;28;20038;-86
2021/12/29 09:16:41;;;;;;;7.32;3.03;;;6.50;99.90;;;;;;4995019;28;20486;-87
2021/12/29 09:19:11;;;;;;;7.45;2.38;;;6.50;99.90;;;;;;4995725;28;20387;-87
2021/12/29 09:21:39;;;;;;;5.90;2.70;;;6.50;99.90;;;;;;4995570;28;20166;-87
2021/12/29 09:24:05;;;;;;;3.75;2.30;;;6.50;99.90;;;;;;4995054;28;20050;-87
2021/12/29 09:26:31;;;;;;;4.57;2.10;;;6.50;99.90;;;;;;4995476;28;20036;-86
2021/12/29 09:28:57;;;;;;;3.95;2.05;;;6.60;99.90;;;;;;4995461;28;20027;-87
2021/12/29 09:31:25;;;;;;;3.22;1.98;;;6.60;99.90;;;;;;4977930;28;20027;-86
2021/12/29 09:33:51;;;;;;;3.65;2.20;;;6.60;99.90;;;;;;4994851;28;20447;-87
2021/12/29 09:36:28;;;;;;;4.53;2.45;;;6.60;99.90;;;;;;4990980;28;20088;-87
2021/12/29 09:38:54;;;;;;;6.45;3.30;;;6.60;99.90;;;;;;4977905;28;20042;-87
2021/12/29 09:41:19;;;;;;;7.28;3.60;;;6.60;99.90;;;;;;4994621;28;20456;-86
2021/12/29 09:43:47;;;;;;;6.38;3.63;;;6.60;99.90;;;;;;4977935;28;20450;-87
2021/12/29 09:46:13;;;;;;;6.25;3.83;;;6.70;99.90;;;;;;4994986;28;20049;-87
2021/12/29 09:48:40;;;;;;;5.25;3.85;;;6.70;99.90;;;;;;4995323;28;20105;-86
2021/12/29 09:51:08;;;;;;;4.85;3.55;;;6.70;99.90;;;;;;4995086;28;20022;-86
2021/12/29 09:53:35;;;;;;;6.93;3.40;;;6.70;99.90;;;;;;4994802;28;20074;-86
2021/12/29 09:56:01;;;;;;;4.60;3.55;;;6.70;99.90;;;;;;4995041;28;20082;-87
2021/12/29 09:58:34;;;;;;;6.90;4.53;;;6.70;99.90;;;;;;4995182;28;20038;-86
2021/12/29 10:01:04;;;;;;;8.48;4.78;;;6.70;99.90;;;;;;4994505;28;20030;-86
2021/12/29 10:04:02;;;;;;;10.02;6.00;;;6.70;99.90;;;;;;4987174;28;20462;-86
2021/12/29 10:06:27;;;;;;;17.48;8.52;;;6.80;99.90;;;;;;4994998;28;20113;-86
2021/12/29 10:09:14;;;;;;;15.65;8.10;;;6.80;99.90;;;;;;4995005;28;20104;-86
2021/12/29 10:11:41;;;;;;;10.88;6.13;;;6.80;99.90;;;;;;4994618;28;20030;-86
2021/12/29 10:14:11;;;;;;;11.82;6.32;;;6.90;99.90;;;;;;4975412;28;20057;-86
2021/12/29 10:16:38;;;;;;;14.60;8.38;;;7.00;99.90;;;;;;4993486;28;20434;-86
2021/12/29 10:19:22;;;;;;;11.10;6.07;;;7.00;99.90;;;;;;4994604;28;20037;-86
2021/12/29 10:21:50;;;;;;;9.10;5.72;;;7.00;99.90;;;;;;4994240;28;20033;-86
2021/12/29 10:24:19;;;;;;;11.10;6.82;;;7.10;99.90;;;;;;4994645;28;20058;-86
2021/12/29 10:26:47;;;;;;;11.32;6.13;;;7.10;99.90;;;;;;4976898;28;20085;-87
2021/12/29 10:29:20;;;;;;;9.77;6.32;;;7.20;99.90;;;;;;4992214;28;20512;-87
2021/12/29 10:32:11;;;;;;;9.93;5.43;;;7.20;99.90;;;;;;4974519;28;20026;-86
2021/12/29 10:34:36;;;;;;;8.13;5.00;;;7.20;99.90;;;;;;4974843;28;20487;-87
2021/12/29 10:37:11;;;;;;;11.05;4.60;;;7.20;99.90;;;;;;4992873;28;20069;-87
2021/12/29 10:39:38;;;;;;;6.07;4.20;;;7.20;99.90;;;;;;4994311;28;20386;-88
2021/12/29 10:42:12;;;;;;;7.90;4.07;;;7.20;99.90;;;;;;4990564;28;20030;-87
2021/12/29 10:44:44;;;;;;;8.73;5.13;;;7.20;99.90;;;;;;4974947;28;20034;-86
2021/12/29 10:47:26;;;;;;;8.55;5.70;;;7.20;99.90;;;;;;4974408;28;20475;-87
2021/12/29 10:50:14;;;;;;;6.47;4.55;;;7.20;99.90;;;;;;4957312;28;20109;-87
2021/12/29 10:52:43;;;;;;;8.50;4.13;;;7.20;99.90;;;;;;4957287;28;20026;-87
2021/12/29 10:55:31;;;;;;;5.07;3.70;;;7.20;99.90;;;;;;4958176;28;20023;-86
2021/12/29 10:58:29;;;;;;;5.47;3.83;;;7.20;99.90;;;;;;4974492;28;20050;-86
2021/12/29 11:01:11;;;;;;;7.18;3.35;;;7.30;99.90;;;;;;4969922;28;20391;-86
2021/12/29 11:03:46;;;;;;;6.25;4.22;;;7.30;99.90;;;;;;4956966;28;20066;-86
2021/12/29 11:06:16;;;;;;;7.38;4.10;;;7.30;99.90;;;;;;4961295;28;20031;-86
2021/12/29 11:08:57;;;;;;;4.60;3.45;;;7.30;99.90;;;;;;4993664;28;20379;-87
2021/12/29 11:11:41;;;;;;;6.00;3.72;;;7.30;99.90;;;;;;4979364;28;20041;-87
2021/12/29 11:14:21;;;;;;;4.60;3.95;;;7.30;99.90;;;;;;4976312;28;20494;-87
2021/12/29 11:17:27;;;;;;;3.97;3.00;;;7.30;99.90;;;;;;4993546;28;20026;-87
2021/12/29 11:19:58;;;;;;;6.53;3.20;;;7.30;99.90;;;;;;4993290;28;20376;-87
2021/12/29 11:22:30;;;;;;;3.65;2.67;;;7.30;99.90;;;;;;4993387;28;20442;-87
2021/12/29 11:24:59;;;;;;;4.25;2.28;;;7.30;99.90;;;;;;4993698;28;20387;-87
2021/12/29 11:27:27;;;;;;;4.25;2.38;;;7.40;99.90;;;;;;4993114;28;20026;-87
2021/12/29 11:30:18;;;;;;;3.92;1.73;;;7.40;99.90;;;;;;4975984;28;20035;-86
2021/12/29 11:32:45;;;;;;;9.00;1.55;;;7.40;99.90;;;;;;4987416;28;20400;-86
2021/12/29 11:35:21;;;;;;;3.22;1.85;;;7.50;99.90;;;;;;4956509;28;20023;-86
2021/12/29 11:37:52;;;;;;;2.95;1.80;;;7.70;99.90;;;;;;4974153;28;20035;-86
2021/12/29 11:40:21;;;;;;;4.45;1.77;;;7.60;99.90;;;;;;4992167;28;20105;-86
2021/12/29 11:42:54;;;;;;;5.00;2.45;;;7.70;99.90;;;;;;4993165;28;20026;-86
2021/12/29 11:45:21;;;;;;;2.00;1.85;;;7.70;99.90;;;;;;4975716;28;20419;-86
2021/12/29 11:47:48;;;;;;;2.92;1.75;;;7.60;99.90;;;;;;4975307;28;20030;-85
2021/12/29 11:50:21;;;;;;;2.35;1.60;;;7.60;99.90;;;;;;4993197;28;20037;-86
2021/12/29 11:53:09;;;;;;;3.15;1.70;;;7.60;99.90;;;;;;4975789;28;20478;-85
2021/12/29 11:55:44;;;;;;;2.50;1.60;;;7.60;99.90;;;;;;4993637;28;20106;-85
2021/12/29 11:58:15;;;;;;;2.38;1.58;;;7.60;99.90;;;;;;4973788;28;20034;-85
2021/12/29 12:01:00;;;;;;;2.38;1.70;;;7.60;99.90;;;;;;4984195;28;20052;-85
2021/12/29 12:03:38;;;;;;;2.60;2.20;;;7.60;99.90;;;;;;4992801;28;20061;-86
2021/12/29 12:06:06;;;;;;;3.45;2.53;;;7.60;99.90;;;;;;4992802;28;20106;-87
2021/12/29 12:08:44;;;;;;;2.45;2.05;;;7.60;99.90;;;;;;4992834;28;20489;-86
2021/12/29 12:11:27;;;;;;;4.45;2.72;;;7.60;99.90;;;;;;4975495;28;20117;-86
2021/12/29 12:13:53;;;;;;;2.30;2.10;;;7.60;99.90;;;;;;4992710;28;20026;-86
2021/12/29 12:16:24;;;;;;;4.35;2.67;;;7.60;99.90;;;;;;4992573;28;20081;-86
2021/12/29 12:18:53;;;;;;;7.20;4.60;;;7.50;99.90;;;;;;4992720;28;20044;-86
2021/12/29 12:21:34;;;;;;;4.70;3.25;;;7.50;99.90;;;;;;4992765;28;20030;-87
2021/12/29 12:24:20;;;;;;;6.18;3.50;;;7.60;99.90;;;;;;4992919;28;20026;-86
2021/12/29 12:26:59;;;;;;;4.05;3.55;;;7.60;99.90;;;;;;4992696;28;20498;-87
2021/12/29 12:29:37;;;;;;;4.55;3.00;;;7.60;99.90;;;;;;4973498;28;20030;-86
2021/12/29 12:32:17;;;;;;;5.13;2.20;;;7.60;99.90;;;;;;4973166;28;20026;-86
2021/12/29 12:34:55;;;;;;;4.18;2.55;;;7.60;99.90;;;;;;4973452;28;20027;-87
2021/12/29 12:37:33;;;;;;;3.20;1.95;;;7.60;99.90;;;;;;4992215;28;20022;-87
2021/12/29 12:40:05;;;;;;;2.60;1.90;;;7.60;99.90;;;;;;4992387;28;20126;-88
2021/12/29 12:42:31;;;;;;;4.68;2.13;;;7.60;99.90;;;;;;4974409;28;20383;-88
2021/12/29 12:45:02;;;;;;;2.70;1.60;;;7.60;99.90;;;;;;4973610;28;20027;-87
2021/12/29 12:47:32;;;;;;;3.45;1.75;;;7.60;99.90;;;;;;4965501;28;20541;-88
2021/12/29 12:50:07;;;;;;;3.05;1.90;;;7.60;99.90;;;;;;4992672;28;20026;-87
2021/12/29 12:52:42;;;;;;;5.28;1.63;;;7.60;99.90;;;;;;4976918;28;20038;-87
2021/12/29 12:55:10;;;;;;;1.33;1.23;;;7.70;99.90;;;;;;4978873;28;20114;-87
2021/12/29 12:57:45;;;;;;;1.60;1.50;;;7.70;99.90;;;;;;4996153;28;20034;-87
2021/12/29 13:00:27;;;;;;;1.95;1.55;;;7.70;99.90;;;;;;4978664;28;20102;-87
2021/12/29 13:02:56;;;;;;;2.78;1.60;;;7.70;99.90;;;;;;4996068;28;20022;-87
2021/12/29 13:05:26;;;;;;;1.80;1.52;;;7.70;99.90;;;;;;4978207;28;20027;-87
2021/12/29 13:08:29;;;;;;;2.33;1.77;;;7.70;99.90;;;;;;4996175;28;20049;-87
2021/12/29 13:10:56;;;;;;;2.30;1.80;;;7.60;99.90;;;;;;4976598;28;20364;-87
2021/12/29 13:13:42;;;;;;;2.47;2.28;;;7.70;99.90;;;;;;4966883;28;20026;-86
2021/12/29 13:16:11;;;;;;;2.85;2.13;;;7.60;99.90;;;;;;4978111;28;20031;-87
2021/12/29 13:18:38;;;;;;;5.35;2.17;;;7.60;99.90;;;;;;4978285;28;20042;-87
2021/12/29 13:21:24;;;;;;;2.70;2.50;;;7.60;99.90;;;;;;4995947;28;20101;-86
2021/12/29 13:23:50;;;;;;;2.30;1.70;;;7.60;99.90;;;;;;4995740;28;20041;-87